Latest Weather Observations for Beaudesert AWS

IDQ60901

Issued at 5:45 pm EST Friday 25 April 2014 (issued every 10 minutes, with the page automatically refreshed every 10 minutes)

About weather observations | Map of Brisbane area stations | Latest observations for Brisbane area | Other Formats
Station Details ID: 040983 Name: BEAUDESERT DRUMLEY STREET Lat: -27.97 Lon: 152.99 Height: 47.81 m
Data from the previous 72 hours. | See also: Recent months at Beaudesert AWS
Date/Time
EST
Tmp

°C
App
Tmp
°C
Dew
Point
°C
Rel
Hum
%
Delta-T

°C
Wind Press
QNH
hPa
Press
MSL
hPa
Rain
since
9 am
mm
Dir
 
Spd
km/h
Gust
km/h
Spd
kts
Gust
kts
25/05:30pm 22.9 22.5 15.2 62 4.6 E 11 19 6 10 1017.1 - 0.0
25/05:00pm 23.9 23.2 15.4 59 5.1 E 13 22 7 12 1016.5 1016.4 0.0
25/04:30pm 25.2 23.7 15.2 54 6.0 ENE 17 30 9 16 1015.9 - 0.0
25/04:00pm 26.4 25.1 14.8 49 7.0 E 15 22 8 12 1015.7 1015.6 0.0
25/03:30pm 27.2 26.0 13.9 44 7.9 ENE 13 20 7 11 1015.7 - 0.0
25/03:00pm 26.1 25.1 12.2 42 8.0 E 9 15 5 8 1015.5 1015.4 0.0
25/02:30pm 27.0 25.3 12.3 40 8.5 E 13 20 7 11 1015.5 - 0.0
25/02:00pm 28.1 28.7 13.2 39 8.8 NNE 2 6 1 3 1015.7 1015.6 0.0
25/01:30pm 27.7 28.4 13.3 41 8.5 W 2 6 1 3 1016.0 - 0.0
25/01:00pm 27.0 26.9 13.4 43 8.0 SW 6 7 3 4 1016.2 1016.1 0.0
25/12:30pm 26.7 27.3 15.4 50 6.9 SW 6 13 3 7 1016.7 - 0.0
25/12:00pm 27.4 28.4 16.4 51 6.8 WNW 6 9 3 5 1017.4 1017.3 0.0
25/11:30am 26.1 27.4 16.1 54 6.1 WNW 4 7 2 4 1017.9 - 0.0
25/11:00am 25.0 26.4 16.4 59 5.3 WSW 4 9 2 5 1018.4 1018.3 0.0
25/10:30am 24.7 26.5 17.4 64 4.6 WSW 4 7 2 4 1018.7 - 0.0
25/10:00am 23.6 25.9 17.6 69 3.7 W 2 6 1 3 1019.0 1018.9 0.0
25/09:30am 22.9 25.3 16.9 69 3.7 NNE 0 2 0 1 1019.3 - 0.0
25/09:00am 20.1 22.1 16.1 78 2.4 CALM 0 0 0 0 1019.3 1019.2 0.0
25/08:30am 17.8 19.4 14.9 83 1.7 CALM 0 0 0 0 1019.4 - 0.0
25/08:00am 15.8 17.1 14.0 89 1.0 CALM 0 0 0 0 1019.2 1019.1 0.0
25/07:30am 15.1 15.8 13.5 90 0.9 WSW 2 4 1 2 1018.5 - 0.0
25/07:00am 14.2 15.1 12.9 92 0.7 CALM 0 2 0 1 1017.8 1017.7 0.0
25/06:30am 13.5 14.2 12.2 92 0.7 CALM 0 0 0 0 1017.5 - 0.0
25/06:00am 13.1 13.7 11.8 92 0.7 CALM 0 0 0 0 1017.2 1017.1 0.0
25/05:30am 13.4 14.1 12.1 92 0.7 CALM 0 0 0 0 1016.8 - 0.0
25/05:00am 13.2 13.8 11.8 91 0.7 CALM 0 0 0 0 1016.5 1016.4 0.0
25/04:30am 13.1 13.5 11.3 89 1.0 CALM 0 0 0 0 1016.3 - 0.0
25/04:00am 14.5 15.4 13.0 91 0.8 CALM 0 0 0 0 1016.1 1016.0 0.0
25/03:30am 14.8 15.8 13.2 90 0.9 CALM 0 0 0 0 1016.2 - 0.0
25/03:00am 14.9 15.9 13.1 89 1.0 CALM 0 0 0 0 1016.0 1015.9 0.0
25/02:30am 15.6 16.9 14.0 90 0.9 CALM 0 0 0 0 1016.0 - 0.0
25/02:00am 15.5 16.7 13.7 89 1.0 CALM 0 0 0 0 1016.3 1016.2 0.0
25/01:30am 15.7 16.9 13.7 88 1.1 CALM 0 0 0 0 1016.5 - 0.0
25/01:00am 16.1 17.3 13.9 87 1.2 CALM 0 0 0 0 1016.6 1016.5 0.0
25/12:30am 16.6 18.2 14.8 89 1.0 CALM 0 0 0 0 1017.0 - 0.0
25/12:00am 16.2 17.3 14.6 90 0.9 SSE 2 4 1 2 1017.0 1016.9 0.0
 
Date/Time
EST
Tmp

°C
App
Tmp
°C
Dew
Point
°C
Rel
Hum
%
Delta-T

°C
Wind Press
QNH
hPa
Press
MSL
hPa
Rain
since
9 am
mm
Dir
 
Spd
km/h
Gust
km/h
Spd
kts
Gust
kts
24/11:30pm 15.7 16.8 13.5 87 1.2 CALM 0 0 0 0 1016.9 - 0.0
24/11:00pm 15.6 16.6 13.1 85 1.4 CALM 0 0 0 0 1017.0 1016.9 0.0
24/10:30pm 16.6 17.9 14.2 86 1.4 CALM 0 0 0 0 1017.1 - 0.0
24/10:00pm 17.1 18.4 14.2 83 1.7 CALM 0 0 0 0 1017.0 1016.9 0.0
24/09:30pm 17.9 19.4 14.6 81 1.9 CALM 0 0 0 0 1016.9 - 0.0
24/09:00pm 17.6 18.6 13.3 76 2.4 CALM 0 0 0 0 1017.1 1017.0 0.0
24/08:30pm 19.4 20.7 14.2 72 3.0 CALM 0 0 0 0 1016.7 - 0.0
24/08:00pm 20.8 22.2 14.5 67 3.7 CALM 0 0 0 0 1016.4 1016.3 0.0
24/07:30pm 21.6 22.3 14.5 64 4.2 NNW 4 7 2 4 1016.1 - 0.0
24/07:00pm 22.6 23.6 15.4 64 4.3 WNW 4 6 2 3 1015.6 1015.5 0.0
24/06:30pm 23.7 24.8 15.5 60 4.9 NE 4 9 2 5 1015.1 - 0.0
24/06:00pm 24.1 23.9 14.8 56 5.5 ENE 9 15 5 8 1014.5 1014.4 0.0
24/05:30pm 25.2 25.2 15.2 54 6.0 ENE 9 15 5 8 1014.3 - 0.0
24/05:00pm 26.5 26.7 12.9 43 7.9 NE 4 6 2 3 1014.1 1013.9 0.0
24/04:30pm 28.0 28.1 12.8 39 8.9 ENE 4 7 2 4 1013.8 - 0.0
24/04:00pm 28.1 27.3 11.6 36 9.5 E 7 11 4 6 1013.3 1013.1 0.0
24/03:30pm 29.2 29.4 13.0 37 9.6 N 4 7 2 4 1013.2 - 0.0
24/03:00pm 28.4 28.5 12.7 38 9.2 SW 4 6 2 3 1013.3 1013.1 0.0
24/02:30pm 28.9 28.5 12.3 36 9.7 NNW 6 9 3 5 1013.6 - 0.0
24/02:00pm 29.0 29.2 13.2 37 9.4 N 4 7 2 4 1013.9 1013.7 0.0
24/01:30pm 28.6 29.3 14.4 41 8.6 W 4 11 2 6 1014.2 - 0.0
24/01:00pm 27.7 27.6 13.3 41 8.5 WNW 6 9 3 5 1014.4 1014.3 0.0
24/12:30pm 27.4 27.7 13.4 42 8.3 N 4 9 2 5 1015.1 - 0.0
24/12:00pm 26.6 26.6 13.7 45 7.6 NW 6 9 3 5 1015.5 1015.4 0.0
24/11:30am 26.0 26.5 14.1 47 7.1 W 4 9 2 5 1015.9 - 0.0
24/11:00am 25.2 26.9 16.1 57 5.6 SW 2 7 1 4 1016.6 1016.5 0.0
24/10:30am 25.0 26.8 16.4 59 5.3 W 2 6 1 3 1017.4 - 0.0
24/10:00am 23.3 24.9 15.9 63 4.5 S 2 6 1 3 1017.8 1017.7 0.0
24/09:30am 21.9 23.6 16.2 70 3.4 SSE 2 4 1 2 1018.1 - 0.0
24/09:00am 20.9 23.1 16.5 76 2.7 CALM 0 4 0 2 1018.5 1018.4 0.0
24/08:30am 18.9 19.8 15.2 79 2.2 NNW 4 7 2 4 1018.5 - 0.0
24/08:00am 17.1 17.9 13.8 81 1.9 N 2 6 1 3 1018.0 1017.9 0.0
24/07:30am 15.5 16.5 13.2 86 1.3 CALM 0 2 0 1 1017.5 - 0.0
24/07:00am 14.6 15.6 13.3 92 0.7 CALM 0 0 0 0 1017.1 1017.0 0.0
24/06:30am 13.5 14.2 12.2 92 0.7 CALM 0 0 0 0 1016.8 - 0.0
24/06:00am 13.3 13.2 12.0 92 0.7 E 4 4 2 2 1016.6 1016.5 0.0
24/05:30am 12.9 13.0 11.5 91 0.7 SE 2 4 1 2 1016.5 - 0.0
24/05:00am 13.1 13.3 11.7 91 0.7 S 2 4 1 2 1016.5 1016.4 0.0
24/04:30am 13.2 12.9 11.6 90 0.9 S 4 6 2 3 1016.4 - 0.0
24/04:00am 13.8 14.5 12.2 90 0.9 CALM 0 0 0 0 1016.5 1016.4 0.0
24/03:30am 14.0 14.7 12.2 89 1.0 CALM 0 0 0 0 1016.3 - 0.0
24/03:00am 14.3 14.8 12.7 90 0.9 SE 2 4 1 2 1016.3 1016.2 0.0
24/02:30am 14.1 14.7 11.8 86 1.2 CALM 0 0 0 0 1016.5 - 0.0
24/02:00am 14.8 15.7 12.8 88 1.1 CALM 0 0 0 0 1016.6 1016.5 0.0
24/01:30am 14.9 15.4 12.8 87 1.2 SSE 2 4 1 2 1016.9 - 0.0
24/01:00am 15.3 15.5 13.0 86 1.3 SSE 4 4 2 2 1017.2 1017.1 0.0
24/12:30am 15.8 16.6 13.8 88 1.1 SSE 2 4 1 2 1017.5 - 0.0
24/12:00am 15.8 17.0 13.8 88 1.1 CALM 0 0 0 0 1017.8 1017.7 0.0
 
Date/Time
EST
Tmp

°C
App
Tmp
°C
Dew
Point
°C
Rel
Hum
%
Delta-T

°C
Wind Press
QNH
hPa
Press
MSL
hPa
Rain
since
9 am
mm
Dir
 
Spd
km/h
Gust
km/h
Spd
kts
Gust
kts
23/11:30pm 16.5 17.6 14.7 89 1.0 E 2 4 1 2 1018.0 - 0.0
23/11:00pm 15.4 16.5 13.4 88 1.1 CALM 0 0 0 0 1018.1 1018.0 0.0
23/10:30pm 15.3 16.1 12.6 84 1.5 CALM 0 0 0 0 1018.1 - 0.0
23/10:00pm 15.9 16.8 13.0 83 1.6 CALM 0 0 0 0 1018.1 1018.0 0.0
23/09:30pm 16.6 17.8 13.7 83 1.6 CALM 0 0 0 0 1018.0 - 0.0
23/09:00pm 17.3 18.5 13.8 80 2.0 CALM 0 0 0 0 1017.9 1017.8 0.0
23/08:30pm 18.1 19.3 13.8 76 2.5 CALM 0 0 0 0 1017.9 - 0.0
23/08:00pm 19.6 20.7 14.6 73 2.9 ESE 2 2 1 1 1017.7 1017.6 0.0
23/07:30pm 19.6 20.7 13.5 68 3.5 CALM 0 0 0 0 1017.4 - 0.0
23/07:00pm 20.9 22.0 13.4 62 4.3 CALM 0 4 0 2 1017.2 1017.1 0.0
23/06:30pm 22.8 22.8 14.1 58 5.1 NNE 7 13 4 7 1016.6 - 0.0
23/06:00pm 22.3 21.7 11.7 51 5.9 NE 6 11 3 6 1016.2 1016.1 0.0
23/05:30pm 24.8 23.9 10.7 41 7.9 N 6 9 3 5 1015.9 - 0.0
23/05:00pm 26.8 26.4 8.3 31 10.0 CALM 0 0 0 0 1015.5 1015.4 0.0
23/04:30pm 27.1 26.4 8.5 31 10.1 E 2 6 1 3 1015.3 - 0.0
23/04:00pm 27.9 27.0 9.2 31 10.3 E 4 7 2 4 1015.3 1015.2 0.0
23/03:30pm 28.1 27.5 8.9 30 10.6 E 2 7 1 4 1015.3 - 0.0
23/03:00pm 27.9 27.0 9.2 31 10.3 SSE 4 7 2 4 1015.4 1015.3 0.0
23/02:30pm 27.5 25.9 8.9 31 10.2 SE 7 9 4 5 1015.5 - 0.0
23/02:00pm 27.5 26.1 8.9 31 10.2 SE 6 7 3 4 1015.8 1015.7 0.0
23/01:30pm 28.1 26.6 8.4 29 10.8 NNW 6 9 3 5 1015.9 - 0.0
23/01:00pm 27.4 26.4 8.8 31 10.2 W 4 7 2 4 1016.3 1016.2 0.0
23/12:30pm 27.6 27.2 11.2 36 9.4 W 4 13 2 7 1016.8 - 0.0
23/12:00pm 26.3 25.0 9.2 34 9.4 WNW 6 13 3 7 1017.4 1017.3 0.0
23/11:30am 26.4 26.1 11.3 39 8.6 NW 4 11 2 6 1018.1 - 0.0
23/11:00am 24.7 24.9 14.2 52 6.2 SSW 6 11 3 6 1018.7 1018.6 0.0
23/10:30am 24.4 24.9 15.1 56 5.6 SW 6 11 3 6 1019.2 - 0.0
23/10:00am 23.0 23.9 15.1 61 4.7 S 4 9 2 5 1019.7 1019.6 0.0
23/09:30am 21.8 23.4 14.9 65 4.1 CALM 0 0 0 0 1020.0 - 0.0
23/09:00am 20.0 21.7 15.2 74 2.8 CALM 0 4 0 2 1020.2 1020.1 0.0
23/08:30am 17.5 18.0 14.0 80 2.0 SSW 4 6 2 3 1020.4 - 0.0
23/08:00am 16.4 16.9 12.9 80 1.9 SSE 2 6 1 3 1020.3 1020.2 0.0
23/07:30am 15.5 16.6 13.5 88 1.1 CALM 0 0 0 0 1020.4 - 0.0
23/07:00am 13.3 13.9 12.0 92 0.7 CALM 0 0 0 0 1020.2 1020.1 0.0
23/06:30am 12.5 12.1 11.1 91 0.7 S 4 6 2 3 1019.9 - 0.0
23/06:00am 12.9 13.4 11.5 91 0.7 CALM 0 0 0 0 1019.6 1019.5 0.0
23/05:30am 12.9 13.4 11.5 91 0.7 CALM 0 0 0 0 1019.4 - 0.0
23/05:00am 12.6 12.9 11.0 90 0.8 CALM 0 0 0 0 1019.3 1019.2 0.0
23/04:30am 12.6 12.9 10.8 89 0.9 CALM 0 0 0 0 1018.9 - 0.0
23/04:00am 13.8 14.1 12.2 90 0.9 ESE 2 2 1 1 1018.6 1018.5 0.0
23/03:30am 12.9 13.2 11.0 88 1.0 CALM 0 4 0 2 1018.7 - 0.0
23/03:00am 14.1 14.4 12.3 89 1.0 E 2 4 1 2 1018.5 1018.4 0.0
23/02:30am 13.9 14.6 12.1 89 1.0 CALM 0 0 0 0 1018.9 - 0.0
23/02:00am 13.6 14.1 11.5 87 1.1 CALM 0 0 0 0 1019.0 1018.9 0.0
23/01:30am 14.8 15.1 12.3 85 1.4 SE 2 4 1 2 1019.1 - 0.0
23/01:00am 15.3 15.4 12.8 85 1.4 S 4 7 2 4 1019.4 1019.3 0.0
23/12:30am 15.5 15.7 13.0 85 1.4 SE 4 6 2 3 1019.4 - 0.0
23/12:00am 15.3 15.8 12.8 85 1.4 SSE 2 6 1 3 1019.6 1019.5 0.0
 
Date/Time
EST
Tmp

°C
App
Tmp
°C
Dew
Point
°C
Rel
Hum
%
Delta-T

°C
Wind Press
QNH
hPa
Press
MSL
hPa
Rain
since
9 am
mm
Dir
 
Spd
km/h
Gust
km/h
Spd
kts
Gust
kts
22/11:30pm 15.1 16.0 13.0 87 1.2 CALM 0 0 0 0 1019.7 - 0.0
22/11:00pm 14.0 14.5 11.7 86 1.2 CALM 0 0 0 0 1019.8 1019.7 0.0
22/10:30pm 14.1 14.7 11.8 86 1.2 CALM 0 0 0 0 1019.9 - 0.0
22/10:00pm 14.5 15.1 11.8 84 1.5 CALM 0 0 0 0 1020.0 1019.9 0.0
22/09:30pm 15.0 15.7 12.1 83 1.6 CALM 0 0 0 0 1020.0 - 0.0
22/09:00pm 15.9 16.7 12.5 80 1.9 CALM 0 0 0 0 1019.9 1019.8 0.0
22/08:30pm 16.3 17.1 12.5 78 2.1 CALM 0 0 0 0 1020.0 - 0.0
22/08:00pm 16.5 16.8 12.3 76 2.3 SW 2 4 1 2 1019.9 1019.8 0.0
22/07:30pm 18.4 19.2 12.6 69 3.2 CALM 0 0 0 0 1019.7 - 0.0
22/07:00pm 19.4 20.1 12.2 63 4.0 CALM 0 2 0 1 1019.6 1019.5 0.0
22/06:30pm 21.0 21.0 12.4 58 4.9 ENE 4 7 2 4 1019.1 - 0.0
22/06:00pm 22.3 22.3 12.3 53 5.7 NE 4 7 2 4 1018.8 1018.7 0.0

Latest Capital City Observations: Canberra | Sydney | Melbourne | Brisbane | Adelaide | Perth | Hobart | Darwin

Other Formats:

Comma delimited format used in spreadsheet applications
http://www.bom.gov.au/fwo/IDQ60901/IDQ60901.95575.axf

JavaScript Object Notation format (JSON) in row-major order
http://www.bom.gov.au/fwo/IDQ60901/IDQ60901.95575.json